Terminal Aerodrome Forecast
Issued by NWS

Home | Current Version | Previous Version | Text Only | Print | Product List | Glossary On
Versions: 1 2 3 4 5 6 7 8 9 10 11 12 13 14 15 16 17 18 19 20 21
000
FTUS44 KHGX 310610 AAA
TAFCXO
TAF AMD
KCXO 310610Z 3106/0106 VRB03KT P6SM VCSH SCT040
      TEMPO 3106/3107 1SM RA BKN025
     FM310800 00000KT 6SM BR SCT250
      TEMPO 3109/3112 5SM BR
     FM311600 VRB05KT P6SM FEW045
     FM010100 00000KT P6SM SCT250=

USA.gov is the U.S. government's official web portal to all federal, state and local government web resources and services.